Time;durP1;ratioP1;P1;durP2;ratioP2;P2;SDS_P1;SDS_P2;PMS_P1;PMS_P2;Temp;Humidity;BMP_temperature;BMP_pressure;BME280_temperature;BME280_humidity;BME280_pressure;Samples;Min_cycle;Max_cycle;Signal;HPM_P1;HPM_P2
2022/11/25 00:00:52;;;;;;;4.97;2.40;;;;;;;2.46;100.00;96254.31;5057018;28;20231;-70
2022/11/25 00:03:18;;;;;;;4.57;2.37;;;;;;;2.31;100.00;96258.19;5054475;28;20206;-71
2022/11/25 00:05:45;;;;;;;6.13;2.53;;;;;;;2.20;100.00;96254.81;5061615;28;20677;-71
2022/11/25 00:08:11;;;;;;;7.77;3.00;;;;;;;2.26;100.00;96241.31;5058968;28;20241;-70
2022/11/25 00:10:38;;;;;;;5.57;2.43;;;;;;;2.13;100.00;96243.28;5056643;28;20208;-70
2022/11/25 00:13:06;;;;;;;4.40;2.40;;;;;;;2.22;100.00;96240.75;5055866;28;20234;-70
2022/11/25 00:15:33;;;;;;;7.23;2.57;;;;;;;2.23;100.00;96238.97;5056465;28;20202;-70
2022/11/25 00:18:00;;;;;;;7.47;2.97;;;;;;;2.15;100.00;96229.22;5056548;28;20208;-70
2022/11/25 00:20:26;;;;;;;5.57;2.90;;;;;;;2.15;100.00;96234.41;5056587;28;20378;-70
2022/11/25 00:22:53;;;;;;;7.37;2.80;;;;;;;2.08;100.00;96222.06;5055686;28;20677;-71
2022/11/25 00:25:19;;;;;;;7.07;2.93;;;;;;;2.14;100.00;96224.13;5056528;28;20208;-70
2022/11/25 00:27:46;;;;;;;6.47;3.00;;;;;;;2.24;100.00;96219.81;5056248;28;20459;-70
2022/11/25 00:30:16;;;;;;;8.57;2.87;;;;;;;2.27;100.00;96219.59;5056111;28;20708;-71
2022/11/25 00:32:42;;;;;;;6.97;3.57;;;;;;;2.20;100.00;96224.47;5055553;28;20245;-70
2022/11/25 00:35:09;;;;;;;7.03;3.43;;;;;;;2.08;100.00;96216.84;5055844;28;20213;-69
2022/11/25 00:37:35;;;;;;;6.73;2.83;;;;;;;2.09;100.00;96228.91;5055918;28;20205;-69
2022/11/25 00:40:02;;;;;;;4.00;2.50;;;;;;;2.09;100.00;96223.72;5056296;28;20225;-70
2022/11/25 00:45:12;;;;;;;9.90;3.03;;;;;;;2.10;100.00;96230.53;5063603;28;20397;-71
2022/11/25 00:47:40;;;;;;;8.13;2.97;;;;;;;2.01;100.00;96224.34;5056391;28;20449;-71
2022/11/25 00:50:07;;;;;;;4.77;2.53;;;;;;;1.99;100.00;96223.63;5055697;28;20707;-71
2022/11/25 00:52:35;;;;;;;8.50;2.73;;;;;;;1.73;100.00;96226.69;5055260;28;20215;-70
2022/11/25 00:55:03;;;;;;;4.23;2.40;;;;;;;1.88;100.00;96230.66;5055995;28;20765;-69
2022/11/25 00:57:30;;;;;;;11.63;3.00;;;;;;;2.01;100.00;96231.28;5055849;28;20199;-71
2022/11/25 00:59:57;;;;;;;6.00;2.47;;;;;;;2.03;100.00;96239.78;5055622;28;20226;-70
2022/11/25 01:02:23;;;;;;;6.47;2.67;;;;;;;1.97;100.00;96240.28;5055148;28;20499;-70
2022/11/25 01:04:51;;;;;;;9.07;2.23;;;;;;;2.13;100.00;96244.09;5055107;28;20856;-69
2022/11/25 01:07:18;;;;;;;7.93;2.73;;;;;;;2.01;100.00;96247.72;5055468;28;20210;-69
2022/11/25 01:09:45;;;;;;;3.93;2.13;;;;;;;2.04;100.00;96247.47;5062547;28;20602;-69
2022/11/25 01:12:11;;;;;;;6.47;2.43;;;;;;;2.04;100.00;96251.84;5055743;28;20207;-69
2022/11/25 01:14:38;;;;;;;7.03;2.60;;;;;;;2.20;100.00;96258.25;5057096;28;20197;-70
2022/11/25 01:17:05;;;;;;;4.80;2.50;;;;;;;2.20;100.00;96260.03;5059632;28;20208;-69
2022/11/25 01:19:31;;;;;;;3.03;2.00;;;;;;;2.14;100.00;96263.13;5059614;28;20715;-71
2022/11/25 01:21:59;;;;;;;5.43;2.30;;;;;;;2.22;100.00;96264.16;5059412;28;20208;-70
2022/11/25 01:24:26;;;;;;;4.47;2.70;;;;;;;1.78;100.00;96266.09;5058608;28;20210;-69
2022/11/25 01:26:54;;;;;;;4.97;2.37;;;;;;;1.99;100.00;96269.59;5063214;28;20204;-70
2022/11/25 01:29:21;;;;;;;3.40;2.40;;;;;;;1.99;100.00;96265.19;5069272;28;20565;-69
2022/11/25 01:31:48;;;;;;;5.27;2.60;;;;;;;2.01;100.00;96259.88;5078063;28;20216;-71
2022/11/25 01:34:16;;;;;;;4.17;2.30;;;;;;;2.13;100.00;96264.09;5061067;28;20206;-70
2022/11/25 01:36:43;;;;;;;6.60;2.43;;;;;;;1.99;100.00;96269.59;5059072;28;20212;-69
2022/11/25 01:39:15;;;;;;;8.13;2.37;;;;;;;2.11;100.00;96271.16;5059004;28;20228;-70
2022/11/25 01:41:42;;;;;;;6.17;2.67;;;;;;;2.13;100.00;96271.88;5059111;28;20216;-71
2022/11/25 01:44:12;;;;;;;4.97;2.50;;;;;;;2.25;100.00;96266.47;5058467;28;20213;-70
2022/11/25 01:46:45;;;;;;;5.00;2.80;;;;;;;2.22;100.00;96258.13;5058402;28;20195;-71
2022/11/25 01:49:16;;;;;;;3.23;2.07;;;;;;;2.15;100.00;96259.56;5059028;28;20224;-70
2022/11/25 01:51:47;;;;;;;4.47;2.10;;;;;;;2.16;100.00;96259.44;5058534;28;20870;-71
2022/11/25 01:54:18;;;;;;;4.07;2.50;;;;;;;2.08;100.00;96268.84;5063811;28;20202;-70
2022/11/25 01:56:50;;;;;;;6.57;2.73;;;;;;;2.12;100.00;96270.22;5058289;28;20393;-70
2022/11/25 01:59:17;;;;;;;4.83;2.53;;;;;;;2.14;100.00;96258.75;5058998;28;20227;-70
2022/11/25 02:01:44;;;;;;;4.23;2.13;;;;;;;2.11;100.00;96269.38;5058645;28;20520;-69
2022/11/25 02:04:13;;;;;;;5.67;3.00;;;;;;;2.16;100.00;96271.63;5065631;28;20674;-70
2022/11/25 02:06:44;;;;;;;3.50;2.03;;;;;;;2.24;100.00;96269.22;5058505;28;20208;-70
2022/11/25 02:09:10;;;;;;;6.83;2.23;;;;;;;2.27;100.00;96271.56;5058354;28;20227;-70
2022/11/25 02:11:41;;;;;;;5.07;2.37;;;;;;;2.22;100.00;96281.53;5058249;28;20209;-70
2022/11/25 02:14:09;;;;;;;6.17;2.60;;;;;;;2.23;100.00;96273.59;5057652;28;20207;-71
2022/11/25 02:16:35;;;;;;;4.57;2.53;;;;;;;2.25;100.00;96273.47;5058687;28;20203;-71
2022/11/25 02:19:03;;;;;;;4.27;2.13;;;;;;;2.25;100.00;96273.47;5057763;28;20931;-70
2022/11/25 02:21:40;;;;;;;4.77;2.80;;;;;;;2.21;100.00;96274.66;5058260;28;20206;-71
2022/11/25 02:24:12;;;;;;;4.33;2.30;;;;;;;2.20;100.00;96276.47;5057624;28;20213;-70
2022/11/25 02:26:40;;;;;;;6.97;2.90;;;;;;;2.17;100.00;96262.88;5063700;28;20505;-70
2022/11/25 02:29:07;;;;;;;4.93;3.10;;;;;;;2.22;100.00;96261.53;5058607;28;20592;-70
2022/11/25 02:31:33;;;;;;;3.73;2.10;;;;;;;2.24;100.00;96257.06;5058370;28;20823;-69
2022/11/25 02:34:00;;;;;;;7.27;2.90;;;;;;;2.26;100.00;96254.31;5056906;28;20212;-71
2022/11/25 02:36:26;;;;;;;3.90;2.40;;;;;;;2.10;100.00;96257.38;5057346;28;20229;-70
2022/11/25 02:38:55;;;;;;;3.87;2.43;;;;;;;2.09;100.00;96257.50;5058470;28;20249;-70
2022/11/25 02:41:26;;;;;;;5.47;3.27;;;;;;;2.15;100.00;96251.78;5059536;28;20197;-70
2022/11/25 02:43:54;;;;;;;5.33;2.83;;;;;;;2.15;100.00;96246.56;5062240;28;20197;-70
2022/11/25 02:46:23;;;;;;;7.27;2.80;;;;;;;2.19;100.00;96235.81;5057505;28;20203;-70
2022/11/25 02:48:50;;;;;;;4.23;2.23;;;;;;;2.15;100.00;96246.56;5057510;28;20544;-70
2022/11/25 02:51:18;;;;;;;5.73;2.57;;;;;;;2.01;100.00;96245.13;5057523;28;20205;-71
2022/11/25 02:53:45;;;;;;;4.90;2.60;;;;;;;2.01;100.00;96249.47;5057218;28;20216;-70
2022/11/25 02:56:14;;;;;;;5.70;2.80;;;;;;;2.08;100.00;96242.84;5057172;28;20681;-70
2022/11/25 02:58:41;;;;;;;4.13;2.33;;;;;;;1.99;100.00;96243.59;5057441;28;20229;-71
2022/11/25 03:01:09;;;;;;;4.47;2.60;;;;;;;2.01;100.00;96252.06;5057512;28;20209;-70
2022/11/25 03:03:36;;;;;;;5.37;2.87;;;;;;;1.90;100.00;96252.97;5056654;28;20211;-69
2022/11/25 03:06:03;;;;;;;8.97;2.93;;;;;;;1.95;100.00;96252.59;5057178;28;20204;-70
2022/11/25 03:08:29;;;;;;;5.13;2.87;;;;;;;1.85;100.00;96262.88;5056962;28;20606;-69
2022/11/25 03:10:56;;;;;;;7.23;3.30;;;;;;;1.91;100.00;96261.59;5056950;28;20226;-69
2022/11/25 03:13:22;;;;;;;5.13;2.80;;;;;;;1.88;100.00;96241.03;5056646;28;20213;-69
2022/11/25 03:15:49;;;;;;;5.90;3.23;;;;;;;1.72;100.00;96255.38;5056867;28;20213;-70
2022/11/25 03:18:17;;;;;;;7.77;3.53;;;;;;;1.86;100.00;96248.16;5056874;28;20714;-70
2022/11/25 03:20:43;;;;;;;5.53;2.80;;;;;;;1.78;100.00;96239.31;5056965;28;20649;-69
2022/11/25 03:23:10;;;;;;;6.67;2.50;;;;;;;1.75;100.00;96240.38;5057752;28;20205;-70
2022/11/25 03:25:36;;;;;;;8.10;3.03;;;;;;;1.71;100.00;96248.56;5066388;28;20207;-69
2022/11/25 03:28:03;;;;;;;5.53;3.23;;;;;;;1.67;100.00;96249.72;5060215;28;20204;-69
2022/11/25 03:30:30;;;;;;;6.07;2.83;;;;;;;1.66;100.00;96246.31;5056608;28;20229;-69
2022/11/25 03:32:57;;;;;;;6.53;2.90;;;;;;;1.36;100.00;96253.13;5056671;28;20620;-69
2022/11/25 03:35:25;;;;;;;5.33;3.00;;;;;;;1.56;100.00;96242.81;5057137;28;20708;-70
2022/11/25 03:37:51;;;;;;;5.13;2.90;;;;;;;1.56;100.00;96229.81;5056781;28;20232;-70
2022/11/25 03:40:18;;;;;;;6.60;3.40;;;;;;;1.51;100.00;96220.75;5056957;28;20221;-69
2022/11/25 03:42:45;;;;;;;9.30;3.17;;;;;;;1.49;100.00;96217.44;5056704;28;20201;-70
2022/11/25 03:45:14;;;;;;;7.13;3.27;;;;;;;1.49;100.00;96217.44;5056451;28;20485;-69
2022/11/25 03:47:41;;;;;;;5.77;3.30;;;;;;;1.34;100.00;96224.69;5056449;28;20196;-70
2022/11/25 03:50:08;;;;;;;13.60;3.90;;;;;;;1.47;100.00;96222.78;5057494;28;20260;-69
2022/11/25 03:52:36;;;;;;;5.97;3.20;;;;;;;1.59;100.00;96229.59;5059926;28;20203;-70
2022/11/25 03:55:04;;;;;;;8.73;3.53;;;;;;;1.57;100.00;96210.72;5054574;28;20729;-70
2022/11/25 03:57:30;;;;;;;6.33;2.90;;;;;;;1.63;100.00;96210.22;5057440;28;20201;-70
2022/11/25 03:59:57;;;;;;;6.17;3.17;;;;;;;1.51;100.00;96213.78;5064775;28;20236;-69
2022/11/25 04:02:23;;;;;;;6.73;3.40;;;;;;;1.56;100.00;96222.03;5056092;28;20205;-71
2022/11/25 04:04:50;;;;;;;5.97;3.07;;;;;;;1.60;100.00;96218.25;5065316;28;20208;-70
2022/11/25 04:07:16;;;;;;;4.70;2.93;;;;;;;1.52;100.00;96223.22;5056805;28;20212;-69
2022/11/25 04:09:44;;;;;;;7.63;3.77;;;;;;;1.52;100.00;96238.00;5064642;28;20288;-70
2022/11/25 04:14:55;;;;;;;5.43;2.77;;;;;;;1.32;100.00;96231.81;5057122;28;20203;-70
2022/11/25 04:17:22;;;;;;;4.77;3.07;;;;;;;1.35;100.00;96238.50;5061642;28;20905;-70
2022/11/25 04:19:48;;;;;;;5.50;3.60;;;;;;;1.45;100.00;96237.66;5064164;28;20231;-69
2022/11/25 04:22:15;;;;;;;6.77;3.57;;;;;;;1.48;100.00;96229.63;5056738;28;20209;-70
2022/11/25 04:24:41;;;;;;;6.20;3.43;;;;;;;1.49;100.00;96240.81;5056575;28;20209;-70
2022/11/25 04:27:09;;;;;;;7.37;3.23;;;;;;;1.57;100.00;96228.88;5056757;28;20210;-70
2022/11/25 04:29:36;;;;;;;5.47;3.17;;;;;;;1.57;100.00;96223.69;5056713;28;20246;-71
2022/11/25 04:32:02;;;;;;;4.80;2.77;;;;;;;1.48;100.00;96237.41;5056785;28;20200;-71
2022/11/25 04:34:29;;;;;;;5.20;3.13;;;;;;;1.59;100.00;96234.78;5056010;28;20200;-70
2022/11/25 04:36:55;;;;;;;10.13;3.67;;;;;;;1.48;100.00;96244.38;5056660;28;20767;-70
2022/11/25 04:39:22;;;;;;;6.47;3.63;;;;;;;1.42;100.00;96237.06;5064933;28;20223;-70
2022/11/25 04:41:48;;;;;;;9.67;3.93;;;;;;;1.47;100.00;96235.75;5056077;28;20208;-70
2022/11/25 04:44:16;;;;;;;14.97;4.13;;;;;;;1.57;100.00;96238.47;5056375;28;20204;-70
2022/11/25 04:46:43;;;;;;;7.97;3.70;;;;;;;1.70;100.00;96234.75;5061941;28;20209;-70
2022/11/25 04:49:10;;;;;;;9.67;4.17;;;;;;;1.78;100.00;96234.13;5060204;28;21096;-70
2022/11/25 04:51:37;;;;;;;6.47;3.57;;;;;;;1.77;100.00;96225.50;5059910;28;20671;-71
2022/11/25 04:54:03;;;;;;;7.27;3.80;;;;;;;1.78;100.00;96229.75;5060999;28;20207;-71
2022/11/25 04:56:30;;;;;;;13.60;6.20;;;;;;;1.84;100.00;96234.44;5060408;28;20686;-70
2022/11/25 05:01:42;;;;;;;39.90;14.60;;;;;;;1.83;100.00;96244.03;5060687;28;20213;-71
2022/11/25 05:04:08;;;;;;;9.40;3.60;;;;;;;1.73;100.00;96241.47;5059956;28;20211;-70
2022/11/25 05:06:35;;;;;;;10.43;5.07;;;;;;;1.65;100.00;96247.25;5059634;28;20205;-70
2022/11/25 05:09:03;;;;;;;13.10;5.27;;;;;;;1.64;100.00;96243.00;5060598;28;20231;-70
2022/11/25 05:11:29;;;;;;;11.93;4.90;;;;;;;1.64;100.00;96242.19;5060405;28;20263;-70
2022/11/25 05:13:56;;;;;;;14.63;5.00;;;;;;;1.69;100.00;96247.84;5059372;28;20513;-69
2022/11/25 05:16:22;;;;;;;10.07;4.20;;;;;;;1.61;100.00;96252.84;5060082;28;20196;-70
2022/11/25 05:18:50;;;;;;;11.10;4.20;;;;;;;1.74;100.00;96254.31;5060034;28;20232;-71
2022/11/25 05:21:17;;;;;;;7.80;4.30;;;;;;;1.68;100.00;96260.03;5063291;28;20743;-70
2022/11/25 05:23:43;;;;;;;7.97;4.30;;;;;;;1.68;100.00;96260.03;5065706;28;20204;-70
2022/11/25 05:26:10;;;;;;;12.77;4.63;;;;;;;1.66;100.00;96254.13;5059758;28;20205;-71
2022/11/25 05:28:36;;;;;;;8.10;4.07;;;;;;;1.70;100.00;96255.50;5059451;28;20991;-70
2022/11/25 05:31:03;;;;;;;9.37;4.50;;;;;;;1.71;100.00;96254.56;5059862;28;20232;-71
2022/11/25 05:33:29;;;;;;;8.63;4.30;;;;;;;1.77;100.00;96251.50;5058828;28;20211;-71
2022/11/25 05:35:59;;;;;;;9.43;5.23;;;;;;;1.82;100.00;96263.16;5059445;28;20238;-70
2022/11/25 05:38:25;;;;;;;12.47;4.87;;;;;;;1.80;100.00;96268.59;5065811;28;20232;-71
2022/11/25 05:40:52;;;;;;;10.23;5.10;;;;;;;1.77;100.00;96271.44;5059604;28;20205;-70
2022/11/25 05:43:19;;;;;;;11.50;4.97;;;;;;;1.75;100.00;96273.34;5066340;28;20220;-70
2022/11/25 05:45:46;;;;;;;9.70;4.97;;;;;;;1.81;100.00;96271.06;5059936;28;20212;-69
2022/11/25 05:48:12;;;;;;;15.97;5.77;;;;;;;1.90;100.00;96260.75;5059763;28;20224;-69
2022/11/25 05:50:39;;;;;;;9.77;5.00;;;;;;;1.84;100.00;96257.81;5059272;28;20224;-69
2022/11/25 05:53:07;;;;;;;12.20;5.83;;;;;;;1.96;100.00;96251.63;5059089;28;20209;-70
2022/11/25 05:55:34;;;;;;;11.00;5.57;;;;;;;1.80;100.00;96257.25;5059773;28;20207;-69
2022/11/25 05:58:01;;;;;;;9.27;4.60;;;;;;;1.85;100.00;96257.69;5058459;28;20212;-69
2022/11/25 06:00:28;;;;;;;13.40;5.30;;;;;;;1.83;100.00;96259.63;5060217;28;20201;-70
2022/11/25 06:02:55;;;;;;;10.60;4.37;;;;;;;1.97;100.00;96267.13;5063976;28;20208;-69
2022/11/25 06:05:22;;;;;;;9.27;5.00;;;;;;;2.05;100.00;96269.91;5058703;28;20206;-70
2022/11/25 06:07:48;;;;;;;12.00;5.30;;;;;;;2.02;100.00;96274.50;5058693;28;20204;-71
2022/11/25 06:10:16;;;;;;;8.23;4.33;;;;;;;2.05;100.00;96275.09;5061812;28;20224;-70
2022/11/25 06:12:43;;;;;;;9.43;4.70;;;;;;;2.04;100.00;96288.22;5059127;28;20205;-69
2022/11/25 06:15:11;;;;;;;13.13;5.70;;;;;;;2.11;100.00;96281.56;5058973;28;20204;-69
2022/11/25 06:17:38;;;;;;;12.50;7.70;;;;;;;2.02;100.00;96279.72;5066177;28;20197;-69
2022/11/25 06:20:06;;;;;;;10.37;5.50;;;;;;;2.08;100.00;96277.44;5065960;28;20220;-69
2022/11/25 06:22:32;;;;;;;18.07;8.03;;;;;;;1.96;100.00;96290.59;5057678;28;20717;-69
2022/11/25 06:24:59;;;;;;;14.07;6.73;;;;;;;1.92;100.00;96290.03;5058835;28;20212;-71
2022/11/25 06:27:26;;;;;;;12.50;6.83;;;;;;;2.02;100.00;96283.13;5058742;28;20208;-70
2022/11/25 06:29:53;;;;;;;11.70;5.60;;;;;;;1.98;100.00;96284.31;5063337;28;20240;-69
2022/11/25 06:32:19;;;;;;;11.47;5.70;;;;;;;2.02;100.00;96290.09;5057990;28;20209;-70
2022/11/25 06:34:46;;;;;;;14.67;5.47;;;;;;;2.07;100.00;96299.16;5058652;28;20209;-70
2022/11/25 06:37:12;;;;;;;13.50;6.27;;;;;;;2.05;100.00;96293.28;5058573;28;20199;-69
2022/11/25 06:39:39;;;;;;;12.47;5.40;;;;;;;2.14;100.00;96289.94;5061687;28;20253;-70
2022/11/25 06:42:05;;;;;;;17.60;6.33;;;;;;;2.24;100.00;96290.00;5058624;28;20206;-71
2022/11/25 06:44:33;;;;;;;12.77;5.70;;;;;;;2.19;100.00;96287.78;5061128;28;20310;-69
2022/11/25 06:47:00;;;;;;;10.73;5.30;;;;;;;2.10;100.00;96290.31;5062434;28;20223;-69
2022/11/25 06:49:28;;;;;;;8.27;4.83;;;;;;;2.20;100.00;96288.63;5058091;28;20232;-70
2022/11/25 06:51:54;;;;;;;12.20;5.83;;;;;;;2.32;100.00;96290.19;5057858;28;20233;-69
2022/11/25 06:54:21;;;;;;;11.80;5.70;;;;;;;2.18;100.00;96290.53;5057327;28;20209;-70
2022/11/25 06:56:50;;;;;;;9.50;4.90;;;;;;;2.23;100.00;96277.94;5057379;28;20205;-70
2022/11/25 06:59:18;;;;;;;12.07;5.43;;;;;;;2.27;100.00;96285.38;5058197;28;20334;-69
2022/11/25 07:01:46;;;;;;;11.70;5.23;;;;;;;2.19;100.00;96281.75;5057850;28;20204;-70
2022/11/25 07:04:12;;;;;;;10.10;5.00;;;;;;;2.21;100.00;96279.88;5056306;28;20205;-70
2022/11/25 07:06:39;;;;;;;7.67;4.57;;;;;;;2.15;100.00;96285.56;5058236;28;20204;-69
2022/11/25 07:09:05;;;;;;;11.40;4.97;;;;;;;2.28;100.00;96283.59;5057970;28;20242;-70
2022/11/25 07:11:33;;;;;;;12.13;6.07;;;;;;;2.38;100.00;96287.94;5057188;28;20225;-69
2022/11/25 07:14:02;;;;;;;11.00;5.30;;;;;;;2.37;100.00;96301.03;5057133;28;20442;-71
2022/11/25 07:16:29;;;;;;;14.43;5.30;;;;;;;2.27;100.00;96302.78;5058056;28;20205;-70
2022/11/25 07:18:58;;;;;;;9.67;5.10;;;;;;;2.37;100.00;96309.69;5062028;28;20232;-69
2022/11/25 07:21:25;;;;;;;9.60;5.27;;;;;;;2.37;100.00;96317.47;5057196;28;20207;-70
2022/11/25 07:23:52;;;;;;;13.57;6.13;;;;;;;2.25;100.00;96317.66;5063025;28;20659;-71
2022/11/25 07:26:21;;;;;;;10.53;5.53;;;;;;;2.31;100.00;96322.38;5058759;28;20213;-70
2022/11/25 07:28:48;;;;;;;10.20;5.03;;;;;;;2.35;100.00;96328.97;5063132;28;20232;-70
2022/11/25 07:31:18;;;;;;;14.13;5.83;;;;;;;2.40;100.00;96331.03;5059253;28;20245;-70
2022/11/25 07:33:44;;;;;;;11.53;5.53;;;;;;;2.35;100.00;96334.16;5056243;28;20232;-69
2022/11/25 07:36:14;;;;;;;12.70;6.10;;;;;;;2.44;100.00;96348.06;5057367;28;20898;-69
2022/11/25 07:38:41;;;;;;;10.67;5.97;;;;;;;2.41;100.00;96344.88;5057745;28;20726;-69
2022/11/25 07:41:09;;;;;;;11.10;6.40;;;;;;;2.40;100.00;96344.03;5056936;28;20200;-69
2022/11/25 07:43:36;;;;;;;11.87;5.40;;;;;;;2.50;100.00;96342.34;5055878;28;20203;-69
2022/11/25 07:46:11;;;;;;;11.90;5.73;;;;;;;2.60;100.00;96345.03;5057958;28;20216;-69
2022/11/25 07:48:38;;;;;;;13.50;7.13;;;;;;;2.48;100.00;96348.63;5057411;28;20278;-69
2022/11/25 07:51:04;;;;;;;20.07;7.00;;;;;;;2.63;100.00;96350.78;5056629;28;20589;-69
2022/11/25 07:53:32;;;;;;;22.80;8.33;;;;;;;2.74;100.00;96350.72;5060029;28;20314;-70
2022/11/25 07:56:01;;;;;;;28.57;10.53;;;;;;;2.60;100.00;96352.84;5058686;28;20227;-69
2022/11/25 07:58:27;;;;;;;13.03;7.03;;;;;;;2.67;100.00;96341.81;5056874;28;20226;-69
2022/11/25 08:00:53;;;;;;;16.00;7.60;;;;;;;2.81;100.00;96344.06;5057141;28;20207;-69
2022/11/25 08:03:20;;;;;;;18.27;7.10;;;;;;;2.77;100.00;96350.47;5056587;28;21071;-69
2022/11/25 08:05:47;;;;;;;19.43;7.80;;;;;;;2.90;100.00;96343.28;5057108;28;20207;-69
2022/11/25 08:08:13;;;;;;;14.20;6.67;;;;;;;3.03;100.00;96338.72;5056747;28;20263;-69
2022/11/25 08:10:41;;;;;;;12.20;6.60;;;;;;;3.17;100.00;96338.34;5056901;28;20758;-69
2022/11/25 08:13:08;;;;;;;12.77;7.27;;;;;;;3.10;100.00;96339.84;5056834;28;20208;-70
2022/11/25 08:15:34;;;;;;;12.87;6.73;;;;;;;3.07;100.00;96337.50;5057322;28;20570;-70
2022/11/25 08:18:01;;;;;;;11.80;6.00;;;;;;;2.98;100.00;96340.88;5057210;28;20201;-70
2022/11/25 08:20:28;;;;;;;10.30;5.50;;;;;;;3.14;100.00;96344.69;5062871;28;20206;-71
2022/11/25 08:22:55;;;;;;;12.70;5.50;;;;;;;3.25;100.00;96346.38;5061638;28;20207;-70
2022/11/25 08:25:21;;;;;;;9.53;5.13;;;;;;;3.32;100.00;96343.13;5060526;28;20204;-70
2022/11/25 08:27:49;;;;;;;9.70;4.90;;;;;;;3.43;100.00;96348.22;5060745;28;20682;-69
2022/11/25 08:30:16;;;;;;;10.57;5.03;;;;;;;3.39;100.00;96356.44;5060133;28;20226;-69
2022/11/25 08:32:42;;;;;;;11.10;5.37;;;;;;;3.47;100.00;96354.00;5060502;28;20217;-70
2022/11/25 08:35:09;;;;;;;10.57;5.13;;;;;;;3.60;100.00;96355.38;5060780;28;20219;-70
2022/11/25 08:37:35;;;;;;;7.17;4.50;;;;;;;3.67;100.00;96352.13;5060665;28;20203;-70
2022/11/25 08:40:03;;;;;;;8.80;4.63;;;;;;;3.72;100.00;96360.38;5060913;28;20580;-70
2022/11/25 08:42:29;;;;;;;11.67;4.87;;;;;;;3.70;100.00;96357.09;5067922;28;21105;-70
2022/11/25 08:44:57;;;;;;;12.90;5.17;;;;;;;3.83;100.00;96356.84;5060455;28;20210;-70
2022/11/25 08:47:24;;;;;;;10.70;5.40;;;;;;;3.91;100.00;96357.00;5069196;28;20574;-70
2022/11/25 08:49:51;;;;;;;15.17;5.20;;;;;;;3.88;100.00;96352.88;5060702;28;20591;-70
2022/11/25 08:52:17;;;;;;;19.73;5.47;;;;;;;3.91;100.00;96354.41;5059431;28;20304;-70
2022/11/25 08:54:44;;;;;;;11.23;5.33;;;;;;;4.05;100.00;96351.38;5067564;28;20215;-69
2022/11/25 08:57:10;;;;;;;11.33;5.57;;;;;;;4.13;100.00;96354.97;5063049;28;20208;-70
2022/11/25 08:59:37;;;;;;;13.97;5.57;;;;;;;4.08;100.00;96366.78;5060033;28;20231;-70
2022/11/25 09:02:06;;;;;;;10.97;5.63;;;;;;;4.16;100.00;96357.31;5060343;28;20286;-70
2022/11/25 09:04:33;;;;;;;15.37;6.27;;;;;;;4.25;100.00;96359.09;5069376;28;20203;-70
2022/11/25 09:07:00;;;;;;;19.27;6.47;;;;;;;4.34;100.00;96350.47;5064912;28;20204;-70
2022/11/25 09:09:26;;;;;;;12.27;6.13;;;;;;;4.47;100.00;96353.66;5059572;28;20237;-70
2022/11/25 09:11:53;;;;;;;10.20;4.63;;;;;;;4.45;100.00;96352.94;5064063;28;20772;-70
2022/11/25 09:14:19;;;;;;;17.20;6.13;;;;;;;4.82;100.00;96364.31;5059615;28;20205;-70
2022/11/25 09:16:46;;;;;;;17.90;6.90;;;;;;;4.83;100.00;96356.34;5059725;28;20204;-70
2022/11/25 09:19:14;;;;;;;12.23;4.60;;;;;;;4.69;100.00;96363.78;5062426;28;20929;-70
2022/11/25 09:21:42;;;;;;;12.73;5.03;;;;;;;4.73;100.00;96352.91;5068033;28;20192;-70
2022/11/25 09:24:09;;;;;;;12.23;4.37;;;;;;;4.98;100.00;96352.34;5059243;28;20845;-70
2022/11/25 09:26:38;;;;;;;9.57;4.13;;;;;;;4.98;100.00;96363.59;5067427;28;20200;-70
2022/11/25 09:29:05;;;;;;;7.70;4.50;;;;;;;5.27;100.00;96367.00;5060022;28;20230;-70
2022/11/25 09:31:31;;;;;;;10.83;4.53;;;;;;;5.32;100.00;96366.56;5059464;28;20238;-70
2022/11/25 09:33:58;;;;;;;10.23;5.23;;;;;;;5.40;100.00;96370.09;5058779;28;20201;-70
2022/11/25 09:36:26;;;;;;;10.50;4.77;;;;;;;5.73;100.00;96374.81;5065373;28;20216;-70
2022/11/25 09:38:53;;;;;;;9.17;4.57;;;;;;;5.76;100.00;96374.53;5059359;28;20239;-70
2022/11/25 09:47:25;;;;;;;10.50;5.50;;;;;;;5.95;100.00;96374.44;5059514;28;21113;-70
2022/11/25 09:50:04;;;;;;;9.07;4.50;;;;;;;6.09;100.00;96375.59;5059762;28;20228;-71
2022/11/25 09:52:39;;;;;;;11.03;5.40;;;;;;;6.36;100.00;96359.03;5058632;28;20211;-71
2022/11/25 09:55:11;;;;;;;11.07;5.63;;;;;;;6.41;100.00;96360.22;5058897;28;20234;-71
2022/11/25 09:57:50;;;;;;;8.60;4.87;;;;;;;6.45;100.00;96369.44;5057843;28;20215;-70
2022/11/25 10:00:19;;;;;;;10.87;5.43;;;;;;;6.45;100.00;96356.34;5067719;28;20227;-71
2022/11/25 10:02:58;;;;;;;9.80;4.67;;;;;;;6.56;100.00;96361.38;5058573;28;20204;-71
2022/11/25 10:05:28;;;;;;;9.20;4.23;;;;;;;6.81;100.00;96348.34;5066595;28;20203;-71
2022/11/25 10:08:01;;;;;;;6.40;3.93;;;;;;;6.76;100.00;96358.44;5059938;28;20227;-70
2022/11/25 10:10:42;;;;;;;7.27;3.40;;;;;;;6.71;100.00;96355.44;5064521;28;20192;-70
2022/11/25 10:13:19;;;;;;;7.37;4.10;;;;;;;6.91;100.00;96359.56;5057351;28;20207;-71
2022/11/25 10:15:49;;;;;;;9.97;3.90;;;;;;;6.95;100.00;96371.38;5058651;28;20212;-71
2022/11/25 10:18:21;;;;;;;7.23;3.73;;;;;;;6.96;100.00;96374.81;5059934;28;21939;-71
2022/11/25 10:20:50;;;;;;;11.90;5.90;;;;;;;7.22;100.00;96375.66;5059256;28;20201;-71
2022/11/25 10:23:23;;;;;;;9.23;4.27;;;;;;;7.60;100.00;96371.66;5058087;28;20391;-72
2022/11/25 10:25:53;;;;;;;6.13;3.40;;;;;;;7.75;100.00;96375.34;5058958;28;20208;-71
2022/11/25 10:28:23;;;;;;;5.20;3.30;;;;;;;7.57;100.00;96387.66;5058555;28;20228;-70
2022/11/25 10:30:58;;;;;;;6.57;3.13;;;;;;;7.52;100.00;96382.09;5058364;28;20204;-71
2022/11/25 10:33:28;;;;;;;6.67;3.80;;;;;;;7.54;100.00;96392.44;5057857;28;20211;-72
2022/11/25 10:36:00;;;;;;;6.97;3.80;;;;;;;7.56;100.00;96380.81;5058361;28;20215;-73
2022/11/25 10:38:37;;;;;;;9.53;4.73;;;;;;;7.56;100.00;96383.44;5061095;28;22023;-73
2022/11/25 10:41:04;;;;;;;10.00;3.90;;;;;;;7.51;100.00;96385.69;5061884;28;21022;-71
2022/11/25 10:43:31;;;;;;;8.23;3.60;;;;;;;7.55;100.00;96373.09;5061042;28;20196;-71
2022/11/25 10:46:09;;;;;;;8.23;3.90;;;;;;;7.72;100.00;96374.81;5062521;28;20219;-72
2022/11/25 10:48:49;;;;;;;5.37;3.23;;;;;;;7.53;100.00;96380.28;5057534;28;20728;-73
2022/11/25 10:51:32;;;;;;;9.23;3.90;;;;;;;7.62;100.00;96382.78;5058394;28;20224;-73
2022/11/25 10:54:12;;;;;;;5.73;3.30;;;;;;;7.70;100.00;96368.91;5057961;28;20564;-71
2022/11/25 10:56:50;;;;;;;6.73;3.87;;;;;;;7.70;100.00;96367.13;5057758;28;20201;-71
2022/11/25 10:59:26;;;;;;;6.23;3.13;;;;;;;7.80;100.00;96367.81;5058076;28;20260;-71
2022/11/25 11:02:05;;;;;;;7.57;3.00;;;;;;;7.99;100.00;96376.28;5058118;28;20207;-72
2022/11/25 11:04:33;;;;;;;8.83;3.73;;;;;;;7.93;100.00;96370.84;5057099;28;20196;-73
2022/11/25 11:07:08;;;;;;;7.73;3.70;;;;;;;8.22;100.00;96368.66;5058078;28;20802;-72
2022/11/25 11:09:39;;;;;;;10.00;3.40;;;;;;;8.31;100.00;96362.44;5065635;28;20224;-71
2022/11/25 11:12:20;;;;;;;9.60;4.43;;;;;;;8.35;100.00;96363.78;5057175;28;20286;-73
2022/11/25 11:14:47;;;;;;;9.30;3.80;;;;;;;8.19;99.57;96359.31;5062530;28;20694;-72
2022/11/25 11:17:33;;;;;;;9.20;2.90;;;;;;;8.05;100.00;96361.69;5060230;28;20226;-71
2022/11/25 11:20:02;;;;;;;7.40;3.60;;;;;;;7.88;100.00;96368.66;5057419;28;21029;-73
2022/11/25 11:22:29;;;;;;;9.50;4.03;;;;;;;7.80;100.00;96359.94;5059700;28;20690;-71
2022/11/25 11:25:08;;;;;;;10.03;2.90;;;;;;;7.95;100.00;96361.00;5063421;28;20204;-71
2022/11/25 11:27:37;;;;;;;6.17;3.13;;;;;;;7.85;100.00;96370.78;5060689;28;20655;-73
2022/11/25 11:30:15;;;;;;;5.67;3.00;;;;;;;7.98;100.00;96372.00;5060730;28;21144;-73
2022/11/25 11:32:44;;;;;;;9.93;3.63;;;;;;;7.82;100.00;96370.28;5061949;28;20787;-73
2022/11/25 11:35:21;;;;;;;3.20;2.50;;;;;;;7.82;100.00;96355.38;5057205;28;20212;-71
2022/11/25 11:37:52;;;;;;;9.27;3.83;;;;;;;7.90;100.00;96358.00;5063559;28;20204;-71
2022/11/25 11:40:30;;;;;;;7.97;3.43;;;;;;;7.91;100.00;96362.28;5056996;28;20228;-72
2022/11/25 11:43:28;;;;;;;7.27;2.80;;;;;;;8.06;100.00;96366.78;5056352;28;20215;-72
2022/11/25 11:46:10;;;;;;;4.93;2.80;;;;;;;7.98;100.00;96352.78;5062656;28;20208;-72
2022/11/25 11:48:39;;;;;;;8.27;3.30;;;;;;;7.77;100.00;96362.06;5057156;28;20334;-72